sensor_id;sensor_type;location;lat;lon;timestamp;temperature;humidity
5940;DHT22;2995;-31.998;115.906;2022-07-01T00:02:21;7.40;99.90
5940;DHT22;2995;-31.998;115.906;2022-07-01T00:04:55;7.40;99.90
5940;DHT22;2995;-31.998;115.906;2022-07-01T00:07:26;7.50;99.90
5940;DHT22;2995;-31.998;115.906;2022-07-01T00:09:57;7.80;99.90
5940;DHT22;2995;-31.998;115.906;2022-07-01T00:12:28;7.80;99.90
5940;DHT22;2995;-31.998;115.906;2022-07-01T00:15:00;8.00;99.90
5940;DHT22;2995;-31.998;115.906;2022-07-01T00:17:32;8.00;99.90
5940;DHT22;2995;-31.998;115.906;2022-07-01T00:20:06;8.10;99.90
5940;DHT22;2995;-31.998;115.906;2022-07-01T00:22:38;8.30;99.90
5940;DHT22;2995;-31.998;115.906;2022-07-01T00:25:09;8.30;99.90
5940;DHT22;2995;-31.998;115.906;2022-07-01T00:27:41;8.40;99.90
5940;DHT22;2995;-31.998;115.906;2022-07-01T00:30:13;8.60;99.90
5940;DHT22;2995;-31.998;115.906;2022-07-01T00:32:45;8.70;99.90
5940;DHT22;2995;-31.998;115.906;2022-07-01T00:35:18;9.00;99.90
5940;DHT22;2995;-31.998;115.906;2022-07-01T00:37:50;9.00;99.90
5940;DHT22;2995;-31.998;115.906;2022-07-01T00:40:21;9.10;99.90
5940;DHT22;2995;-31.998;115.906;2022-07-01T00:42:52;9.20;99.90
5940;DHT22;2995;-31.998;115.906;2022-07-01T00:45:24;9.20;99.90
5940;DHT22;2995;-31.998;115.906;2022-07-01T00:47:55;9.40;99.90
5940;DHT22;2995;-31.998;115.906;2022-07-01T00:50:29;9.40;99.90
5940;DHT22;2995;-31.998;115.906;2022-07-01T00:53:00;9.40;99.90
5940;DHT22;2995;-31.998;115.906;2022-07-01T00:55:31;9.60;99.90
5940;DHT22;2995;-31.998;115.906;2022-07-01T00:58:03;9.60;99.90
5940;DHT22;2995;-31.998;115.906;2022-07-01T01:00:34;9.70;99.90
5940;DHT22;2995;-31.998;115.906;2022-07-01T01:03:07;10.00;99.90
5940;DHT22;2995;-31.998;115.906;2022-07-01T01:05:41;10.10;99.90
5940;DHT22;2995;-31.998;115.906;2022-07-01T01:08:13;10.10;99.90
5940;DHT22;2995;-31.998;115.906;2022-07-01T01:10:44;10.30;99.90
5940;DHT22;2995;-31.998;115.906;2022-07-01T01:13:16;10.30;99.90
5940;DHT22;2995;-31.998;115.906;2022-07-01T01:15:47;10.30;99.90
5940;DHT22;2995;-31.998;115.906;2022-07-01T01:18:18;10.40;99.90
5940;DHT22;2995;-31.998;115.906;2022-07-01T01:20:53;10.40;99.90
5940;DHT22;2995;-31.998;115.906;2022-07-01T01:23:24;10.50;99.90
5940;DHT22;2995;-31.998;115.906;2022-07-01T01:25:55;10.60;99.90
5940;DHT22;2995;-31.998;115.906;2022-07-01T01:28:29;10.60;99.90
5940;DHT22;2995;-31.998;115.906;2022-07-01T01:31:01;10.70;99.90
5940;DHT22;2995;-31.998;115.906;2022-07-01T01:33:32;10.70;99.90
5940;DHT22;2995;-31.998;115.906;2022-07-01T01:36:05;11.00;99.90
5940;DHT22;2995;-31.998;115.906;2022-07-01T01:38:37;11.00;99.90
5940;DHT22;2995;-31.998;115.906;2022-07-01T01:41:09;11.00;99.90
5940;DHT22;2995;-31.998;115.906;2022-07-01T01:43:40;11.20;99.90
5940;DHT22;2995;-31.998;115.906;2022-07-01T01:46:11;11.20;99.90
5940;DHT22;2995;-31.998;115.906;2022-07-01T01:48:42;11.40;99.90
5940;DHT22;2995;-31.998;115.906;2022-07-01T01:51:16;11.50;99.90
5940;DHT22;2995;-31.998;115.906;2022-07-01T01:53:48;11.60;99.90
5940;DHT22;2995;-31.998;115.906;2022-07-01T01:56:19;11.60;99.90
5940;DHT22;2995;-31.998;115.906;2022-07-01T01:58:50;11.80;99.90
5940;DHT22;2995;-31.998;115.906;2022-07-01T02:01:21;11.90;99.90
5940;DHT22;2995;-31.998;115.906;2022-07-01T02:03:54;11.90;99.90
5940;DHT22;2995;-31.998;115.906;2022-07-01T02:06:29;12.00;99.90
5940;DHT22;2995;-31.998;115.906;2022-07-01T02:09:00;12.00;99.90
5940;DHT22;2995;-31.998;115.906;2022-07-01T02:11:31;12.00;99.90
5940;DHT22;2995;-31.998;115.906;2022-07-01T02:14:02;12.00;99.90
5940;DHT22;2995;-31.998;115.906;2022-07-01T02:16:34;12.20;99.90
5940;DHT22;2995;-31.998;115.906;2022-07-01T02:19:05;12.30;99.90
5940;DHT22;2995;-31.998;115.906;2022-07-01T02:21:38;12.20;99.90
5940;DHT22;2995;-31.998;115.906;2022-07-01T02:24:10;12.40;99.90
5940;DHT22;2995;-31.998;115.906;2022-07-01T02:26:41;12.50;99.90
5940;DHT22;2995;-31.998;115.906;2022-07-01T02:29:12;12.70;99.90
5940;DHT22;2995;-31.998;115.906;2022-07-01T02:31:45;13.00;99.90
5940;DHT22;2995;-31.998;115.906;2022-07-01T02:34:16;13.20;99.90
5940;DHT22;2995;-31.998;115.906;2022-07-01T02:36:49;13.20;99.90
5940;DHT22;2995;-31.998;115.906;2022-07-01T02:39:23;13.30;99.90
5940;DHT22;2995;-31.998;115.906;2022-07-01T02:41:54;13.30;99.90
5940;DHT22;2995;-31.998;115.906;2022-07-01T02:44:41;13.30;99.90
5940;DHT22;2995;-31.998;115.906;2022-07-01T02:47:12;13.40;99.90
5940;DHT22;2995;-31.998;115.906;2022-07-01T02:49:44;13.40;99.90
5940;DHT22;2995;-31.998;115.906;2022-07-01T02:52:17;13.50;99.90
5940;DHT22;2995;-31.998;115.906;2022-07-01T02:54:48;13.70;99.90
5940;DHT22;2995;-31.998;115.906;2022-07-01T02:57:20;13.80;99.90
5940;DHT22;2995;-31.998;115.906;2022-07-01T02:59:51;13.90;99.90
5940;DHT22;2995;-31.998;115.906;2022-07-01T03:02:23;13.90;99.90
5940;DHT22;2995;-31.998;115.906;2022-07-01T03:04:54;14.00;99.90
5940;DHT22;2995;-31.998;115.906;2022-07-01T03:07:28;14.00;99.90
5940;DHT22;2995;-31.998;115.906;2022-07-01T03:09:59;14.20;99.90
5940;DHT22;2995;-31.998;115.906;2022-07-01T03:12:30;14.30;99.90
5940;DHT22;2995;-31.998;115.906;2022-07-01T03:15:04;14.40;99.90
5940;DHT22;2995;-31.998;115.906;2022-07-01T03:17:36;14.60;99.90
5940;DHT22;2995;-31.998;115.906;2022-07-01T03:20:08;14.50;99.90
5940;DHT22;2995;-31.998;115.906;2022-07-01T03:22:43;14.40;99.90
5940;DHT22;2995;-31.998;115.906;2022-07-01T03:25:15;14.50;99.90
5940;DHT22;2995;-31.998;115.906;2022-07-01T03:27:46;14.50;99.90
5940;DHT22;2995;-31.998;115.906;2022-07-01T03:30:17;14.40;99.90
5940;DHT22;2995;-31.998;115.906;2022-07-01T03:32:49;14.40;99.90
5940;DHT22;2995;-31.998;115.906;2022-07-01T03:35:20;14.60;99.90
5940;DHT22;2995;-31.998;115.906;2022-07-01T03:38:09;14.50;99.90
5940;DHT22;2995;-31.998;115.906;2022-07-01T03:40:41;14.60;99.90
5940;DHT22;2995;-31.998;115.906;2022-07-01T03:43:12;14.60;99.90
5940;DHT22;2995;-31.998;115.906;2022-07-01T03:45:44;14.70;99.90
5940;DHT22;2995;-31.998;115.906;2022-07-01T03:48:15;15.00;99.90
5940;DHT22;2995;-31.998;115.906;2022-07-01T03:50:46;15.20;99.90
5940;DHT22;2995;-31.998;115.906;2022-07-01T03:53:20;15.30;99.90
5940;DHT22;2995;-31.998;115.906;2022-07-01T03:56:06;15.50;99.90
5940;DHT22;2995;-31.998;115.906;2022-07-01T03:58:38;15.60;99.90
5940;DHT22;2995;-31.998;115.906;2022-07-01T04:01:09;15.70;99.90
5940;DHT22;2995;-31.998;115.906;2022-07-01T04:03:40;15.60;99.90
5940;DHT22;2995;-31.998;115.906;2022-07-01T04:06:11;15.70;99.90
5940;DHT22;2995;-31.998;115.906;2022-07-01T04:08:46;15.80;99.90
5940;DHT22;2995;-31.998;115.906;2022-07-01T04:11:17;15.80;99.90
5940;DHT22;2995;-31.998;115.906;2022-07-01T04:13:48;15.90;99.90
5940;DHT22;2995;-31.998;115.906;2022-07-01T04:16:21;16.00;99.90
5940;DHT22;2995;-31.998;115.906;2022-07-01T04:18:53;16.20;99.90
5940;DHT22;2995;-31.998;115.906;2022-07-01T04:21:25;16.30;99.90
5940;DHT22;2995;-31.998;115.906;2022-07-01T04:24:14;16.20;99.90
5940;DHT22;2995;-31.998;115.906;2022-07-01T04:26:46;16.10;99.90
5940;DHT22;2995;-31.998;115.906;2022-07-01T04:29:17;16.20;99.90
5940;DHT22;2995;-31.998;115.906;2022-07-01T04:31:49;16.40;99.90
5940;DHT22;2995;-31.998;115.906;2022-07-01T04:34:20;16.40;99.90
5940;DHT22;2995;-31.998;115.906;2022-07-01T04:36:51;16.30;99.90
5940;DHT22;2995;-31.998;115.906;2022-07-01T04:39:25;16.50;99.90
5940;DHT22;2995;-31.998;115.906;2022-07-01T04:41:56;16.50;99.90
5940;DHT22;2995;-31.998;115.906;2022-07-01T04:44:29;16.50;99.90
5940;DHT22;2995;-31.998;115.906;2022-07-01T04:47:01;16.60;99.90
5940;DHT22;2995;-31.998;115.906;2022-07-01T04:49:33;16.70;99.90
5940;DHT22;2995;-31.998;115.906;2022-07-01T04:52:04;16.60;99.90
5940;DHT22;2995;-31.998;115.906;2022-07-01T04:54:38;16.50;99.90
5940;DHT22;2995;-31.998;115.906;2022-07-01T04:57:09;16.50;99.90
5940;DHT22;2995;-31.998;115.906;2022-07-01T04:59:40;16.50;99.90
5940;DHT22;2995;-31.998;115.906;2022-07-01T05:02:11;16.60;99.90
5940;DHT22;2995;-31.998;115.906;2022-07-01T05:04:43;16.60;99.90
5940;DHT22;2995;-31.998;115.906;2022-07-01T05:07:14;16.80;99.90
5940;DHT22;2995;-31.998;115.906;2022-07-01T05:10:00;16.60;99.90
5940;DHT22;2995;-31.998;115.906;2022-07-01T05:12:31;16.70;99.90
5940;DHT22;2995;-31.998;115.906;2022-07-01T05:15:02;16.70;99.90
5940;DHT22;2995;-31.998;115.906;2022-07-01T05:17:34;16.90;99.90
5940;DHT22;2995;-31.998;115.906;2022-07-01T05:20:22;17.00;99.90
5940;DHT22;2995;-31.998;115.906;2022-07-01T05:23:08;16.70;99.90
5940;DHT22;2995;-31.998;115.906;2022-07-01T05:25:42;16.80;99.90
5940;DHT22;2995;-31.998;115.906;2022-07-01T05:28:13;17.00;99.90
5940;DHT22;2995;-31.998;115.906;2022-07-01T05:30:44;17.10;99.90
5940;DHT22;2995;-31.998;115.906;2022-07-01T05:33:16;17.10;99.90
5940;DHT22;2995;-31.998;115.906;2022-07-01T05:35:47;17.10;99.90
5940;DHT22;2995;-31.998;115.906;2022-07-01T05:38:19;17.10;99.90
5940;DHT22;2995;-31.998;115.906;2022-07-01T05:40:52;17.00;99.90
5940;DHT22;2995;-31.998;115.906;2022-07-01T05:43:24;17.00;99.90
5940;DHT22;2995;-31.998;115.906;2022-07-01T05:45:55;17.20;99.90
5940;DHT22;2995;-31.998;115.906;2022-07-01T05:48:26;17.30;99.90
5940;DHT22;2995;-31.998;115.906;2022-07-01T05:50:58;17.40;99.90
5940;DHT22;2995;-31.998;115.906;2022-07-01T05:53:29;17.40;99.90
5940;DHT22;2995;-31.998;115.906;2022-07-01T05:56:02;17.40;99.90
5940;DHT22;2995;-31.998;115.906;2022-07-01T05:58:33;17.20;99.90
5940;DHT22;2995;-31.998;115.906;2022-07-01T06:01:05;17.20;99.90
5940;DHT22;2995;-31.998;115.906;2022-07-01T06:03:36;17.10;99.90
5940;DHT22;2995;-31.998;115.906;2022-07-01T06:06:07;17.10;99.90
5940;DHT22;2995;-31.998;115.906;2022-07-01T06:08:39;17.30;99.90
5940;DHT22;2995;-31.998;115.906;2022-07-01T06:11:12;17.50;99.90
5940;DHT22;2995;-31.998;115.906;2022-07-01T06:13:43;17.50;99.90
5940;DHT22;2995;-31.998;115.906;2022-07-01T06:16:14;17.60;99.90
5940;DHT22;2995;-31.998;115.906;2022-07-01T06:18:45;17.60;99.90
5940;DHT22;2995;-31.998;115.906;2022-07-01T06:21:17;17.60;99.90
5940;DHT22;2995;-31.998;115.906;2022-07-01T06:23:48;17.70;99.90
5940;DHT22;2995;-31.998;115.906;2022-07-01T06:26:21;17.90;99.90
5940;DHT22;2995;-31.998;115.906;2022-07-01T06:28:53;17.70;99.90
5940;DHT22;2995;-31.998;115.906;2022-07-01T06:31:24;17.80;99.90
5940;DHT22;2995;-31.998;115.906;2022-07-01T06:33:56;17.90;99.90
5940;DHT22;2995;-31.998;115.906;2022-07-01T06:36:27;17.90;99.90
5940;DHT22;2995;-31.998;115.906;2022-07-01T06:38:58;17.80;99.90
5940;DHT22;2995;-31.998;115.906;2022-07-01T06:41:32;17.70;99.90
5940;DHT22;2995;-31.998;115.906;2022-07-01T06:44:03;17.60;99.90
5940;DHT22;2995;-31.998;115.906;2022-07-01T06:46:35;17.60;99.90
5940;DHT22;2995;-31.998;115.906;2022-07-01T06:49:06;17.60;99.90
5940;DHT22;2995;-31.998;115.906;2022-07-01T06:51:37;17.60;99.90
5940;DHT22;2995;-31.998;115.906;2022-07-01T06:54:08;17.60;99.90
5940;DHT22;2995;-31.998;115.906;2022-07-01T06:56:42;17.50;99.90
5940;DHT22;2995;-31.998;115.906;2022-07-01T06:59:13;17.50;99.90
5940;DHT22;2995;-31.998;115.906;2022-07-01T07:01:45;17.60;99.90
5940;DHT22;2995;-31.998;115.906;2022-07-01T07:04:17;17.50;99.90
5940;DHT22;2995;-31.998;115.906;2022-07-01T07:06:48;17.40;99.90
5940;DHT22;2995;-31.998;115.906;2022-07-01T07:09:19;17.40;99.90
5940;DHT22;2995;-31.998;115.906;2022-07-01T07:11:53;17.40;99.90
5940;DHT22;2995;-31.998;115.906;2022-07-01T07:14:24;17.50;99.90
5940;DHT22;2995;-31.998;115.906;2022-07-01T07:16:55;17.40;99.90
5940;DHT22;2995;-31.998;115.906;2022-07-01T07:19:26;17.40;99.90
5940;DHT22;2995;-31.998;115.906;2022-07-01T07:21:58;17.30;99.90
5940;DHT22;2995;-31.998;115.906;2022-07-01T07:24:29;17.30;99.90
5940;DHT22;2995;-31.998;115.906;2022-07-01T07:27:02;17.40;99.90
5940;DHT22;2995;-31.998;115.906;2022-07-01T07:29:33;17.50;99.90
5940;DHT22;2995;-31.998;115.906;2022-07-01T07:32:05;17.50;99.90
5940;DHT22;2995;-31.998;115.906;2022-07-01T07:34:36;17.50;99.90
5940;DHT22;2995;-31.998;115.906;2022-07-01T07:37:08;17.40;99.90
5940;DHT22;2995;-31.998;115.906;2022-07-01T07:39:39;17.40;99.90
5940;DHT22;2995;-31.998;115.906;2022-07-01T07:42:12;17.50;99.90
5940;DHT22;2995;-31.998;115.906;2022-07-01T07:44:44;17.40;99.90
5940;DHT22;2995;-31.998;115.906;2022-07-01T07:47:15;17.40;99.90
5940;DHT22;2995;-31.998;115.906;2022-07-01T07:49:46;17.30;99.90
5940;DHT22;2995;-31.998;115.906;2022-07-01T07:52:18;17.30;99.90
5940;DHT22;2995;-31.998;115.906;2022-07-01T07:54:49;17.40;99.90
5940;DHT22;2995;-31.998;115.906;2022-07-01T07:57:22;17.40;99.90
5940;DHT22;2995;-31.998;115.906;2022-07-01T07:59:54;17.40;99.90
5940;DHT22;2995;-31.998;115.906;2022-07-01T08:02:25;17.40;99.90
5940;DHT22;2995;-31.998;115.906;2022-07-01T08:04:56;17.50;99.90
5940;DHT22;2995;-31.998;115.906;2022-07-01T08:07:28;17.40;99.90
5940;DHT22;2995;-31.998;115.906;2022-07-01T08:09:59;17.30;99.90
5940;DHT22;2995;-31.998;115.906;2022-07-01T08:12:33;17.30;99.90
5940;DHT22;2995;-31.998;115.906;2022-07-01T08:15:05;17.30;99.90
5940;DHT22;2995;-31.998;115.906;2022-07-01T08:17:36;17.30;99.90
5940;DHT22;2995;-31.998;115.906;2022-07-01T08:20:08;17.20;99.90
5940;DHT22;2995;-31.998;115.906;2022-07-01T08:22:39;17.20;99.90
5940;DHT22;2995;-31.998;115.906;2022-07-01T08:25:11;17.30;99.90
5940;DHT22;2995;-31.998;115.906;2022-07-01T08:27:44;17.20;99.90
5940;DHT22;2995;-31.998;115.906;2022-07-01T08:30:15;17.20;99.90
5940;DHT22;2995;-31.998;115.906;2022-07-01T08:32:46;17.20;99.90
5940;DHT22;2995;-31.998;115.906;2022-07-01T08:35:18;17.20;99.90
5940;DHT22;2995;-31.998;115.906;2022-07-01T08:37:49;17.20;99.90
5940;DHT22;2995;-31.998;115.906;2022-07-01T08:40:21;17.10;99.90
5940;DHT22;2995;-31.998;115.906;2022-07-01T08:42:59;17.00;99.90
5940;DHT22;2995;-31.998;115.906;2022-07-01T08:45:31;17.00;99.90
5940;DHT22;2995;-31.998;115.906;2022-07-01T08:48:04;16.90;99.90
5940;DHT22;2995;-31.998;115.906;2022-07-01T08:50:36;16.90;99.90
5940;DHT22;2995;-31.998;115.906;2022-07-01T08:53:09;16.80;99.90
5940;DHT22;2995;-31.998;115.906;2022-07-01T08:55:40;16.70;99.90
5940;DHT22;2995;-31.998;115.906;2022-07-01T08:58:29;16.80;99.90
5940;DHT22;2995;-31.998;115.906;2022-07-01T09:01:17;16.60;99.90
5940;DHT22;2995;-31.998;115.906;2022-07-01T09:03:49;16.40;99.90
5940;DHT22;2995;-31.998;115.906;2022-07-01T09:06:22;16.40;99.90
5940;DHT22;2995;-31.998;115.906;2022-07-01T09:08:53;16.30;99.90
5940;DHT22;2995;-31.998;115.906;2022-07-01T09:11:25;16.10;99.90
5940;DHT22;2995;-31.998;115.906;2022-07-01T09:14:11;16.10;99.90
5940;DHT22;2995;-31.998;115.906;2022-07-01T09:16:46;15.90;99.90
5940;DHT22;2995;-31.998;115.906;2022-07-01T09:19:19;15.90;99.90
5940;DHT22;2995;-31.998;115.906;2022-07-01T09:21:51;15.70;99.90
5940;DHT22;2995;-31.998;115.906;2022-07-01T09:24:26;15.60;99.90
5940;DHT22;2995;-31.998;115.906;2022-07-01T09:26:59;15.50;99.90
5940;DHT22;2995;-31.998;115.906;2022-07-01T09:29:34;15.40;99.90
5940;DHT22;2995;-31.998;115.906;2022-07-01T09:32:06;15.30;99.90
5940;DHT22;2995;-31.998;115.906;2022-07-01T09:34:42;15.20;99.90
5940;DHT22;2995;-31.998;115.906;2022-07-01T09:37:14;15.10;99.90
5940;DHT22;2995;-31.998;115.906;2022-07-01T09:39:47;15.00;99.90
5940;DHT22;2995;-31.998;115.906;2022-07-01T09:42:20;14.90;99.90
5940;DHT22;2995;-31.998;115.906;2022-07-01T09:44:57;14.80;99.90
5940;DHT22;2995;-31.998;115.906;2022-07-01T09:47:31;14.60;99.90
5940;DHT22;2995;-31.998;115.906;2022-07-01T09:50:03;14.50;99.90
5940;DHT22;2995;-31.998;115.906;2022-07-01T09:52:35;14.40;99.90
5940;DHT22;2995;-31.998;115.906;2022-07-01T09:55:07;14.40;99.90
5940;DHT22;2995;-31.998;115.906;2022-07-01T09:57:40;14.20;99.90
5940;DHT22;2995;-31.998;115.906;2022-07-01T10:00:15;14.10;99.90
5940;DHT22;2995;-31.998;115.906;2022-07-01T10:02:46;14.00;99.90
5940;DHT22;2995;-31.998;115.906;2022-07-01T10:05:21;14.00;99.90
5940;DHT22;2995;-31.998;115.906;2022-07-01T10:07:59;13.90;99.90
5940;DHT22;2995;-31.998;115.906;2022-07-01T10:10:42;13.90;99.90
5940;DHT22;2995;-31.998;115.906;2022-07-01T10:13:17;13.90;99.90
5940;DHT22;2995;-31.998;115.906;2022-07-01T10:15:52;13.80;99.90
5940;DHT22;2995;-31.998;115.906;2022-07-01T10:18:25;13.80;99.90
5940;DHT22;2995;-31.998;115.906;2022-07-01T10:20:58;13.80;99.90
5940;DHT22;2995;-31.998;115.906;2022-07-01T10:23:39;13.70;99.90
5940;DHT22;2995;-31.998;115.906;2022-07-01T10:26:10;13.70;99.90
5940;DHT22;2995;-31.998;115.906;2022-07-01T10:28:42;13.70;99.90
5940;DHT22;2995;-31.998;115.906;2022-07-01T10:31:17;13.70;99.90
5940;DHT22;2995;-31.998;115.906;2022-07-01T10:33:49;13.70;99.90
5940;DHT22;2995;-31.998;115.906;2022-07-01T10:36:26;13.70;99.90
5940;DHT22;2995;-31.998;115.906;2022-07-01T10:39:16;13.60;99.90
5940;DHT22;2995;-31.998;115.906;2022-07-01T10:42:00;13.60;99.90
5940;DHT22;2995;-31.998;115.906;2022-07-01T10:44:34;13.60;99.90
5940;DHT22;2995;-31.998;115.906;2022-07-01T10:47:08;13.50;99.90
5940;DHT22;2995;-31.998;115.906;2022-07-01T10:50:10;13.50;99.90
5940;DHT22;2995;-31.998;115.906;2022-07-01T10:52:59;13.30;99.90
5940;DHT22;2995;-31.998;115.906;2022-07-01T10:55:40;13.20;99.90
5940;DHT22;2995;-31.998;115.906;2022-07-01T10:58:11;13.10;99.90
5940;DHT22;2995;-31.998;115.906;2022-07-01T11:00:44;13.10;99.90
5940;DHT22;2995;-31.998;115.906;2022-07-01T11:03:22;13.00;99.90
5940;DHT22;2995;-31.998;115.906;2022-07-01T11:06:07;12.90;99.90
5940;DHT22;2995;-31.998;115.906;2022-07-01T11:08:39;12.80;99.90
5940;DHT22;2995;-31.998;115.906;2022-07-01T11:11:10;12.70;99.90
5940;DHT22;2995;-31.998;115.906;2022-07-01T11:13:43;12.60;99.90
5940;DHT22;2995;-31.998;115.906;2022-07-01T11:16:15;12.50;99.90
5940;DHT22;2995;-31.998;115.906;2022-07-01T11:18:49;12.40;99.90
5940;DHT22;2995;-31.998;115.906;2022-07-01T11:21:21;12.30;99.90
5940;DHT22;2995;-31.998;115.906;2022-07-01T11:23:55;12.30;99.90
5940;DHT22;2995;-31.998;115.906;2022-07-01T11:26:26;12.20;99.90
5940;DHT22;2995;-31.998;115.906;2022-07-01T11:28:57;12.10;99.90
5940;DHT22;2995;-31.998;115.906;2022-07-01T11:31:30;12.00;99.90
5940;DHT22;2995;-31.998;115.906;2022-07-01T11:34:04;12.00;99.90
5940;DHT22;2995;-31.998;115.906;2022-07-01T11:36:36;11.90;99.90
5940;DHT22;2995;-31.998;115.906;2022-07-01T11:39:28;11.80;99.90
5940;DHT22;2995;-31.998;115.906;2022-07-01T11:42:02;11.70;99.90
5940;DHT22;2995;-31.998;115.906;2022-07-01T11:44:35;11.60;99.90
5940;DHT22;2995;-31.998;115.906;2022-07-01T11:47:07;11.50;99.90
5940;DHT22;2995;-31.998;115.906;2022-07-01T11:49:47;11.50;99.90
5940;DHT22;2995;-31.998;115.906;2022-07-01T11:52:20;11.50;99.90
5940;DHT22;2995;-31.998;115.906;2022-07-01T11:54:52;11.40;99.90
5940;DHT22;2995;-31.998;115.906;2022-07-01T11:57:26;11.30;99.90
5940;DHT22;2995;-31.998;115.906;2022-07-01T12:00:09;11.30;99.90
5940;DHT22;2995;-31.998;115.906;2022-07-01T12:02:41;11.30;99.90
5940;DHT22;2995;-31.998;115.906;2022-07-01T12:05:14;11.20;99.90
5940;DHT22;2995;-31.998;115.906;2022-07-01T12:07:47;11.10;99.90
5940;DHT22;2995;-31.998;115.906;2022-07-01T12:10:18;11.10;99.90
5940;DHT22;2995;-31.998;115.906;2022-07-01T12:12:54;11.00;99.90
5940;DHT22;2995;-31.998;115.906;2022-07-01T12:15:25;11.00;99.90
5940;DHT22;2995;-31.998;115.906;2022-07-01T12:18:06;10.90;99.90
5940;DHT22;2995;-31.998;115.906;2022-07-01T12:20:40;10.90;99.90
5940;DHT22;2995;-31.998;115.906;2022-07-01T12:23:18;10.80;99.90
5940;DHT22;2995;-31.998;115.906;2022-07-01T12:25:50;10.80;99.90
5940;DHT22;2995;-31.998;115.906;2022-07-01T12:28:30;10.80;99.90
5940;DHT22;2995;-31.998;115.906;2022-07-01T12:31:07;10.80;99.90
5940;DHT22;2995;-31.998;115.906;2022-07-01T12:33:44;10.70;99.90
5940;DHT22;2995;-31.998;115.906;2022-07-01T12:36:21;10.60;99.90
5940;DHT22;2995;-31.998;115.906;2022-07-01T12:39:05;10.60;99.90
5940;DHT22;2995;-31.998;115.906;2022-07-01T12:41:37;10.60;99.90
5940;DHT22;2995;-31.998;115.906;2022-07-01T12:44:21;10.50;99.90
5940;DHT22;2995;-31.998;115.906;2022-07-01T12:46:53;10.40;99.90
5940;DHT22;2995;-31.998;115.906;2022-07-01T12:49:25;10.40;99.90
5940;DHT22;2995;-31.998;115.906;2022-07-01T12:51:58;10.40;99.90
5940;DHT22;2995;-31.998;115.906;2022-07-01T12:54:33;10.30;99.90
5940;DHT22;2995;-31.998;115.906;2022-07-01T12:57:06;10.30;99.90
5940;DHT22;2995;-31.998;115.906;2022-07-01T12:59:38;10.30;99.90
5940;DHT22;2995;-31.998;115.906;2022-07-01T13:02:09;10.20;99.90
5940;DHT22;2995;-31.998;115.906;2022-07-01T13:04:40;10.20;99.90
5940;DHT22;2995;-31.998;115.906;2022-07-01T13:07:13;10.20;99.90
5940;DHT22;2995;-31.998;115.906;2022-07-01T13:09:44;10.20;99.90
5940;DHT22;2995;-31.998;115.906;2022-07-01T13:12:17;10.30;99.90
5940;DHT22;2995;-31.998;115.906;2022-07-01T13:14:48;10.20;99.90
5940;DHT22;2995;-31.998;115.906;2022-07-01T13:17:19;10.30;99.90
5940;DHT22;2995;-31.998;115.906;2022-07-01T13:19:51;10.30;99.90
5940;DHT22;2995;-31.998;115.906;2022-07-01T13:22:24;10.20;99.90
5940;DHT22;2995;-31.998;115.906;2022-07-01T13:24:55;10.20;99.90
5940;DHT22;2995;-31.998;115.906;2022-07-01T13:27:26;10.20;99.90
5940;DHT22;2995;-31.998;115.906;2022-07-01T13:29:58;10.20;99.90
5940;DHT22;2995;-31.998;115.906;2022-07-01T13:32:31;10.20;99.90
5940;DHT22;2995;-31.998;115.906;2022-07-01T13:35:02;10.10;99.90
5940;DHT22;2995;-31.998;115.906;2022-07-01T13:37:35;10.10;99.90
5940;DHT22;2995;-31.998;115.906;2022-07-01T13:40:08;10.10;99.90
5940;DHT22;2995;-31.998;115.906;2022-07-01T13:42:40;10.00;99.90
5940;DHT22;2995;-31.998;115.906;2022-07-01T13:45:11;10.00;99.90
5940;DHT22;2995;-31.998;115.906;2022-07-01T13:47:43;10.00;99.90
5940;DHT22;2995;-31.998;115.906;2022-07-01T13:50:14;9.90;99.90
5940;DHT22;2995;-31.998;115.906;2022-07-01T13:52:49;9.80;99.90
5940;DHT22;2995;-31.998;115.906;2022-07-01T13:55:20;9.80;99.90
5940;DHT22;2995;-31.998;115.906;2022-07-01T13:57:51;9.80;99.90
5940;DHT22;2995;-31.998;115.906;2022-07-01T14:00:23;9.80;99.90
5940;DHT22;2995;-31.998;115.906;2022-07-01T14:02:54;9.80;99.90
5940;DHT22;2995;-31.998;115.906;2022-07-01T14:05:25;9.70;99.90
5940;DHT22;2995;-31.998;115.906;2022-07-01T14:07:59;9.70;99.90
5940;DHT22;2995;-31.998;115.906;2022-07-01T14:10:30;9.60;99.90
5940;DHT22;2995;-31.998;115.906;2022-07-01T14:13:02;9.50;99.90
5940;DHT22;2995;-31.998;115.906;2022-07-01T14:15:34;9.50;99.90
5940;DHT22;2995;-31.998;115.906;2022-07-01T14:18:05;9.40;99.90
5940;DHT22;2995;-31.998;115.906;2022-07-01T14:20:37;9.40;99.90
5940;DHT22;2995;-31.998;115.906;2022-07-01T14:23:10;9.30;99.90
5940;DHT22;2995;-31.998;115.906;2022-07-01T14:25:41;9.20;99.90
5940;DHT22;2995;-31.998;115.906;2022-07-01T14:28:14;9.10;99.90
5940;DHT22;2995;-31.998;115.906;2022-07-01T14:30:45;9.10;99.90
5940;DHT22;2995;-31.998;115.906;2022-07-01T14:33:18;9.10;99.90
5940;DHT22;2995;-31.998;115.906;2022-07-01T14:35:49;9.00;99.90
5940;DHT22;2995;-31.998;115.906;2022-07-01T14:38:22;9.00;99.90
5940;DHT22;2995;-31.998;115.906;2022-07-01T14:40:54;9.00;99.90
5940;DHT22;2995;-31.998;115.906;2022-07-01T14:43:25;9.00;99.90
5940;DHT22;2995;-31.998;115.906;2022-07-01T14:45:57;8.90;99.90
5940;DHT22;2995;-31.998;115.906;2022-07-01T14:48:29;8.90;99.90
5940;DHT22;2995;-31.998;115.906;2022-07-01T14:51:03;8.70;99.90
5940;DHT22;2995;-31.998;115.906;2022-07-01T14:53:37;8.80;99.90
5940;DHT22;2995;-31.998;115.906;2022-07-01T14:56:08;8.80;99.90
5940;DHT22;2995;-31.998;115.906;2022-07-01T14:58:39;8.70;99.90
5940;DHT22;2995;-31.998;115.906;2022-07-01T15:01:11;8.60;99.90
5940;DHT22;2995;-31.998;115.906;2022-07-01T15:03:43;8.60;99.90
5940;DHT22;2995;-31.998;115.906;2022-07-01T15:06:14;8.60;99.90
5940;DHT22;2995;-31.998;115.906;2022-07-01T15:08:47;8.50;99.90
5940;DHT22;2995;-31.998;115.906;2022-07-01T15:11:19;8.50;99.90
5940;DHT22;2995;-31.998;115.906;2022-07-01T15:13:50;8.50;99.90
5940;DHT22;2995;-31.998;115.906;2022-07-01T15:16:21;8.50;99.90
5940;DHT22;2995;-31.998;115.906;2022-07-01T15:18:53;8.50;99.90
5940;DHT22;2995;-31.998;115.906;2022-07-01T15:21:24;8.40;99.90
5940;DHT22;2995;-31.998;115.906;2022-07-01T15:23:57;8.40;99.90
5940;DHT22;2995;-31.998;115.906;2022-07-01T15:26:29;8.40;99.90
5940;DHT22;2995;-31.998;115.906;2022-07-01T15:29:11;8.30;99.90
5940;DHT22;2995;-31.998;115.906;2022-07-01T15:31:42;8.20;99.90
5940;DHT22;2995;-31.998;115.906;2022-07-01T15:34:14;8.20;99.90
5940;DHT22;2995;-31.998;115.906;2022-07-01T15:36:46;8.10;99.90
5940;DHT22;2995;-31.998;115.906;2022-07-01T15:39:19;8.10;99.90
5940;DHT22;2995;-31.998;115.906;2022-07-01T15:41:51;8.00;99.90
5940;DHT22;2995;-31.998;115.906;2022-07-01T15:44:23;8.00;99.90
5940;DHT22;2995;-31.998;115.906;2022-07-01T15:46:55;7.90;99.90
5940;DHT22;2995;-31.998;115.906;2022-07-01T15:49:26;7.90;99.90
5940;DHT22;2995;-31.998;115.906;2022-07-01T15:52:00;7.80;99.90
5940;DHT22;2995;-31.998;115.906;2022-07-01T15:54:33;7.80;99.90
5940;DHT22;2995;-31.998;115.906;2022-07-01T15:57:04;7.90;99.90